Matsudo, Japan
Current Conditions -  °F | °C
As of 1:30 AM on Sunday 21 Dec 2014 (Local Time) from RJTT Reporting Station
Broken Clouds Broken Clouds  
Wind Chill: 39°   Ceiling: Unl
Heat Index: 45°   Visibility: 6mi
Dew Point: 41°   Wind: 10mph
Humidity: 87%   Direction: 270°W
Pressure: 29.68"   Gusts: NA
Location:  35.78°N, 139.9°E
Report Text: RJTT 201630Z 27009KT 9999 FEW020 BKN/// 07/05 Q1005 NOSIG RMK 1CU020 A2970 P/RR
Loading
Personal Weather Stations






























Interactive Weather Map New forecast layout! Learn more

10-Day Weather Forecast

Advertisements
Track Severe Weather on mobile